sensor_id;sensor_type;location;lat;lon;timestamp;P1;durP1;ratioP1;P2;durP2;ratioP2
54679;SDS011;40578;53.178;5.846;2023-08-30T00:00:18;15.55;;;12.10;;
54679;SDS011;40578;53.178;5.846;2023-08-30T00:02:46;15.27;;;11.48;;
54679;SDS011;40578;53.178;5.846;2023-08-30T00:05:12;15.57;;;12.32;;
54679;SDS011;40578;53.178;5.846;2023-08-30T00:07:38;16.13;;;11.85;;
54679;SDS011;40578;53.178;5.846;2023-08-30T00:10:05;16.65;;;12.10;;
54679;SDS011;40578;53.178;5.846;2023-08-30T00:12:35;16.98;;;12.35;;
54679;SDS011;40578;53.178;5.846;2023-08-30T00:15:01;14.90;;;11.00;;
54679;SDS011;40578;53.178;5.846;2023-08-30T00:17:26;14.20;;;10.53;;
54679;SDS011;40578;53.178;5.846;2023-08-30T00:19:52;14.00;;;11.57;;
54679;SDS011;40578;53.178;5.846;2023-08-30T00:22:20;15.30;;;11.88;;
54679;SDS011;40578;53.178;5.846;2023-08-30T00:24:47;15.88;;;11.52;;
54679;SDS011;40578;53.178;5.846;2023-08-30T00:27:12;14.90;;;10.97;;
54679;SDS011;40578;53.178;5.846;2023-08-30T00:29:38;15.37;;;11.07;;
54679;SDS011;40578;53.178;5.846;2023-08-30T00:32:04;15.07;;;10.37;;
54679;SDS011;40578;53.178;5.846;2023-08-30T00:34:29;14.57;;;11.10;;
54679;SDS011;40578;53.178;5.846;2023-08-30T00:36:55;13.10;;;10.63;;
54679;SDS011;40578;53.178;5.846;2023-08-30T00:39:21;15.13;;;11.20;;
54679;SDS011;40578;53.178;5.846;2023-08-30T00:41:46;14.80;;;10.20;;
54679;SDS011;40578;53.178;5.846;2023-08-30T00:44:13;14.73;;;11.20;;
54679;SDS011;40578;53.178;5.846;2023-08-30T00:46:39;13.83;;;10.47;;
54679;SDS011;40578;53.178;5.846;2023-08-30T00:49:05;15.60;;;10.60;;
54679;SDS011;40578;53.178;5.846;2023-08-30T00:51:31;15.52;;;11.13;;
54679;SDS011;40578;53.178;5.846;2023-08-30T00:53:58;14.40;;;10.27;;
54679;SDS011;40578;53.178;5.846;2023-08-30T00:56:25;12.60;;;9.95;;
54679;SDS011;40578;53.178;5.846;2023-08-30T00:58:55;14.70;;;10.88;;
54679;SDS011;40578;53.178;5.846;2023-08-30T01:01:21;16.03;;;11.10;;
54679;SDS011;40578;53.178;5.846;2023-08-30T01:03:47;14.10;;;11.77;;
54679;SDS011;40578;53.178;5.846;2023-08-30T01:06:13;14.67;;;11.73;;
54679;SDS011;40578;53.178;5.846;2023-08-30T01:08:39;14.57;;;12.00;;
54679;SDS011;40578;53.178;5.846;2023-08-30T01:11:26;14.45;;;11.60;;
54679;SDS011;40578;53.178;5.846;2023-08-30T01:13:56;15.73;;;12.50;;
54679;SDS011;40578;53.178;5.846;2023-08-30T01:16:23;14.90;;;11.73;;
54679;SDS011;40578;53.178;5.846;2023-08-30T01:18:50;14.52;;;12.13;;
54679;SDS011;40578;53.178;5.846;2023-08-30T01:21:24;17.73;;;13.48;;
54679;SDS011;40578;53.178;5.846;2023-08-30T01:24:09;16.73;;;13.90;;
54679;SDS011;40578;53.178;5.846;2023-08-30T01:29:19;18.92;;;13.60;;
54679;SDS011;40578;53.178;5.846;2023-08-30T01:31:46;20.80;;;14.38;;
54679;SDS011;40578;53.178;5.846;2023-08-30T01:34:14;17.13;;;13.30;;
54679;SDS011;40578;53.178;5.846;2023-08-30T01:36:40;19.50;;;14.25;;
54679;SDS011;40578;53.178;5.846;2023-08-30T01:39:08;19.45;;;14.20;;
54679;SDS011;40578;53.178;5.846;2023-08-30T01:41:35;19.80;;;13.80;;
54679;SDS011;40578;53.178;5.846;2023-08-30T01:44:01;20.83;;;13.97;;
54679;SDS011;40578;53.178;5.846;2023-08-30T01:46:30;17.77;;;13.40;;
54679;SDS011;40578;53.178;5.846;2023-08-30T01:48:58;19.83;;;14.68;;
54679;SDS011;40578;53.178;5.846;2023-08-30T01:51:25;18.77;;;13.30;;
54679;SDS011;40578;53.178;5.846;2023-08-30T01:53:51;16.37;;;13.97;;
54679;SDS011;40578;53.178;5.846;2023-08-30T01:56:19;16.83;;;13.32;;
54679;SDS011;40578;53.178;5.846;2023-08-30T01:58:44;16.87;;;13.30;;
54679;SDS011;40578;53.178;5.846;2023-08-30T02:01:10;18.23;;;13.43;;
54679;SDS011;40578;53.178;5.846;2023-08-30T02:03:37;18.60;;;14.13;;
54679;SDS011;40578;53.178;5.846;2023-08-30T02:06:13;17.67;;;13.43;;
54679;SDS011;40578;53.178;5.846;2023-08-30T02:11:26;19.27;;;13.55;;
54679;SDS011;40578;53.178;5.846;2023-08-30T02:13:57;17.88;;;13.70;;
54679;SDS011;40578;53.178;5.846;2023-08-30T02:16:24;18.27;;;14.00;;
54679;SDS011;40578;53.178;5.846;2023-08-30T02:18:52;17.85;;;14.27;;
54679;SDS011;40578;53.178;5.846;2023-08-30T02:21:18;19.33;;;15.15;;
54679;SDS011;40578;53.178;5.846;2023-08-30T02:23:44;18.10;;;15.13;;
54679;SDS011;40578;53.178;5.846;2023-08-30T02:26:13;20.38;;;15.70;;
54679;SDS011;40578;53.178;5.846;2023-08-30T02:28:39;20.20;;;14.90;;
54679;SDS011;40578;53.178;5.846;2023-08-30T02:31:04;19.00;;;14.87;;
54679;SDS011;40578;53.178;5.846;2023-08-30T02:33:30;19.53;;;14.43;;
54679;SDS011;40578;53.178;5.846;2023-08-30T02:35:56;19.90;;;14.70;;
54679;SDS011;40578;53.178;5.846;2023-08-30T02:38:21;20.23;;;15.53;;
54679;SDS011;40578;53.178;5.846;2023-08-30T02:40:47;21.90;;;16.03;;
54679;SDS011;40578;53.178;5.846;2023-08-30T02:43:13;19.27;;;14.57;;
54679;SDS011;40578;53.178;5.846;2023-08-30T02:45:39;20.17;;;14.70;;
54679;SDS011;40578;53.178;5.846;2023-08-30T02:48:05;18.17;;;14.70;;
54679;SDS011;40578;53.178;5.846;2023-08-30T02:50:31;19.27;;;14.73;;
54679;SDS011;40578;53.178;5.846;2023-08-30T02:52:56;19.97;;;14.93;;
54679;SDS011;40578;53.178;5.846;2023-08-30T02:55:22;20.40;;;14.83;;
54679;SDS011;40578;53.178;5.846;2023-08-30T02:57:47;19.80;;;14.70;;
54679;SDS011;40578;53.178;5.846;2023-08-30T03:00:13;23.67;;;15.77;;
54679;SDS011;40578;53.178;5.846;2023-08-30T03:02:39;19.58;;;14.60;;
54679;SDS011;40578;53.178;5.846;2023-08-30T03:05:05;20.50;;;15.17;;
54679;SDS011;40578;53.178;5.846;2023-08-30T03:07:31;21.00;;;15.20;;
54679;SDS011;40578;53.178;5.846;2023-08-30T03:09:57;21.23;;;15.20;;
54679;SDS011;40578;53.178;5.846;2023-08-30T03:12:22;26.30;;;16.03;;
54679;SDS011;40578;53.178;5.846;2023-08-30T03:14:48;21.70;;;16.10;;
54679;SDS011;40578;53.178;5.846;2023-08-30T03:17:14;23.57;;;16.13;;
54679;SDS011;40578;53.178;5.846;2023-08-30T03:19:39;21.33;;;16.03;;
54679;SDS011;40578;53.178;5.846;2023-08-30T03:22:05;21.47;;;15.93;;
54679;SDS011;40578;53.178;5.846;2023-08-30T03:24:30;21.67;;;16.33;;
54679;SDS011;40578;53.178;5.846;2023-08-30T03:26:56;23.63;;;16.20;;
54679;SDS011;40578;53.178;5.846;2023-08-30T03:29:22;27.13;;;17.07;;
54679;SDS011;40578;53.178;5.846;2023-08-30T03:31:47;23.13;;;16.50;;
54679;SDS011;40578;53.178;5.846;2023-08-30T03:34:13;22.20;;;16.70;;
54679;SDS011;40578;53.178;5.846;2023-08-30T03:36:40;23.13;;;15.70;;
54679;SDS011;40578;53.178;5.846;2023-08-30T03:39:08;21.75;;;15.23;;
54679;SDS011;40578;53.178;5.846;2023-08-30T03:41:33;22.87;;;15.70;;
54679;SDS011;40578;53.178;5.846;2023-08-30T03:43:59;25.70;;;16.63;;
54679;SDS011;40578;53.178;5.846;2023-08-30T03:46:24;24.63;;;16.47;;
54679;SDS011;40578;53.178;5.846;2023-08-30T03:48:50;26.33;;;18.63;;
54679;SDS011;40578;53.178;5.846;2023-08-30T03:51:16;24.33;;;16.80;;
54679;SDS011;40578;53.178;5.846;2023-08-30T03:53:41;25.17;;;17.97;;
54679;SDS011;40578;53.178;5.846;2023-08-30T03:56:07;27.87;;;18.33;;
54679;SDS011;40578;53.178;5.846;2023-08-30T03:58:32;25.50;;;18.43;;
54679;SDS011;40578;53.178;5.846;2023-08-30T04:00:58;27.03;;;18.20;;
54679;SDS011;40578;53.178;5.846;2023-08-30T04:03:24;26.83;;;17.67;;
54679;SDS011;40578;53.178;5.846;2023-08-30T04:05:54;23.53;;;18.30;;
54679;SDS011;40578;53.178;5.846;2023-08-30T04:08:21;25.10;;;18.15;;
54679;SDS011;40578;53.178;5.846;2023-08-30T04:10:46;25.37;;;18.13;;
54679;SDS011;40578;53.178;5.846;2023-08-30T04:13:14;25.55;;;17.38;;
54679;SDS011;40578;53.178;5.846;2023-08-30T04:15:40;26.02;;;18.70;;
54679;SDS011;40578;53.178;5.846;2023-08-30T04:18:06;25.03;;;18.43;;
54679;SDS011;40578;53.178;5.846;2023-08-30T04:20:32;25.90;;;18.63;;
54679;SDS011;40578;53.178;5.846;2023-08-30T04:22:59;26.17;;;19.17;;
54679;SDS011;40578;53.178;5.846;2023-08-30T04:25:27;25.67;;;18.42;;
54679;SDS011;40578;53.178;5.846;2023-08-30T04:27:53;23.85;;;17.65;;
54679;SDS011;40578;53.178;5.846;2023-08-30T04:30:18;26.17;;;18.17;;
54679;SDS011;40578;53.178;5.846;2023-08-30T04:32:44;24.10;;;18.23;;
54679;SDS011;40578;53.178;5.846;2023-08-30T04:35:10;26.27;;;19.23;;
54679;SDS011;40578;53.178;5.846;2023-08-30T04:37:35;27.03;;;19.03;;
54679;SDS011;40578;53.178;5.846;2023-08-30T04:40:03;26.52;;;18.83;;
54679;SDS011;40578;53.178;5.846;2023-08-30T04:42:29;27.48;;;19.63;;
54679;SDS011;40578;53.178;5.846;2023-08-30T04:44:55;27.60;;;19.70;;
54679;SDS011;40578;53.178;5.846;2023-08-30T04:47:21;25.52;;;17.75;;
54679;SDS011;40578;53.178;5.846;2023-08-30T04:49:51;28.77;;;18.25;;
54679;SDS011;40578;53.178;5.846;2023-08-30T04:52:16;28.67;;;18.50;;
54679;SDS011;40578;53.178;5.846;2023-08-30T04:54:42;26.50;;;18.57;;
54679;SDS011;40578;53.178;5.846;2023-08-30T04:57:08;25.50;;;18.17;;
54679;SDS011;40578;53.178;5.846;2023-08-30T04:59:33;25.73;;;17.67;;
54679;SDS011;40578;53.178;5.846;2023-08-30T05:01:59;26.97;;;19.10;;
54679;SDS011;40578;53.178;5.846;2023-08-30T05:04:25;26.80;;;17.73;;
54679;SDS011;40578;53.178;5.846;2023-08-30T05:06:50;27.67;;;18.60;;
54679;SDS011;40578;53.178;5.846;2023-08-30T05:09:16;25.70;;;18.87;;
54679;SDS011;40578;53.178;5.846;2023-08-30T05:11:41;25.80;;;17.97;;
54679;SDS011;40578;53.178;5.846;2023-08-30T05:14:07;26.37;;;19.00;;
54679;SDS011;40578;53.178;5.846;2023-08-30T05:16:37;27.00;;;18.63;;
54679;SDS011;40578;53.178;5.846;2023-08-30T05:19:03;23.70;;;18.37;;
54679;SDS011;40578;53.178;5.846;2023-08-30T05:21:28;26.50;;;17.17;;
54679;SDS011;40578;53.178;5.846;2023-08-30T05:23:54;26.53;;;17.83;;
54679;SDS011;40578;53.178;5.846;2023-08-30T05:26:20;26.13;;;17.63;;
54679;SDS011;40578;53.178;5.846;2023-08-30T05:28:45;25.17;;;18.87;;
54679;SDS011;40578;53.178;5.846;2023-08-30T05:31:11;26.17;;;18.33;;
54679;SDS011;40578;53.178;5.846;2023-08-30T05:33:36;27.10;;;18.80;;
54679;SDS011;40578;53.178;5.846;2023-08-30T05:36:02;26.30;;;17.87;;
54679;SDS011;40578;53.178;5.846;2023-08-30T05:38:28;27.43;;;18.00;;
54679;SDS011;40578;53.178;5.846;2023-08-30T05:40:53;24.30;;;17.57;;
54679;SDS011;40578;53.178;5.846;2023-08-30T05:43:19;23.90;;;17.30;;
54679;SDS011;40578;53.178;5.846;2023-08-30T05:45:44;23.17;;;17.33;;
54679;SDS011;40578;53.178;5.846;2023-08-30T05:48:10;23.40;;;17.73;;
54679;SDS011;40578;53.178;5.846;2023-08-30T05:50:36;21.90;;;16.50;;
54679;SDS011;40578;53.178;5.846;2023-08-30T05:53:02;23.67;;;16.53;;
54679;SDS011;40578;53.178;5.846;2023-08-30T05:55:28;23.02;;;16.52;;
54679;SDS011;40578;53.178;5.846;2023-08-30T05:57:54;24.17;;;16.43;;
54679;SDS011;40578;53.178;5.846;2023-08-30T06:00:20;25.80;;;17.38;;
54679;SDS011;40578;53.178;5.846;2023-08-30T06:02:47;21.23;;;15.27;;
54679;SDS011;40578;53.178;5.846;2023-08-30T06:05:12;22.13;;;16.80;;
54679;SDS011;40578;53.178;5.846;2023-08-30T06:07:38;22.97;;;16.60;;
54679;SDS011;40578;53.178;5.846;2023-08-30T06:10:04;22.33;;;16.40;;
54679;SDS011;40578;53.178;5.846;2023-08-30T06:12:29;22.63;;;16.23;;
54679;SDS011;40578;53.178;5.846;2023-08-30T06:14:55;23.33;;;16.13;;
54679;SDS011;40578;53.178;5.846;2023-08-30T06:17:21;22.13;;;15.27;;
54679;SDS011;40578;53.178;5.846;2023-08-30T06:19:47;22.83;;;16.27;;
54679;SDS011;40578;53.178;5.846;2023-08-30T06:22:13;23.92;;;17.30;;
54679;SDS011;40578;53.178;5.846;2023-08-30T06:24:39;23.10;;;17.63;;
54679;SDS011;40578;53.178;5.846;2023-08-30T06:27:04;23.73;;;17.03;;
54679;SDS011;40578;53.178;5.846;2023-08-30T06:29:30;26.48;;;16.85;;
54679;SDS011;40578;53.178;5.846;2023-08-30T06:31:56;20.43;;;15.07;;
54679;SDS011;40578;53.178;5.846;2023-08-30T06:34:22;23.67;;;17.95;;
54679;SDS011;40578;53.178;5.846;2023-08-30T06:36:48;23.07;;;16.83;;
54679;SDS011;40578;53.178;5.846;2023-08-30T06:39:13;22.80;;;16.23;;
54679;SDS011;40578;53.178;5.846;2023-08-30T06:41:39;22.10;;;15.47;;
54679;SDS011;40578;53.178;5.846;2023-08-30T06:44:05;18.63;;;15.17;;
54679;SDS011;40578;53.178;5.846;2023-08-30T06:46:31;20.73;;;15.57;;
54679;SDS011;40578;53.178;5.846;2023-08-30T06:48:56;19.30;;;13.10;;
54679;SDS011;40578;53.178;5.846;2023-08-30T06:51:22;19.80;;;13.00;;
54679;SDS011;40578;53.178;5.846;2023-08-30T06:53:47;18.37;;;13.80;;
54679;SDS011;40578;53.178;5.846;2023-08-30T06:56:13;18.17;;;13.23;;
54679;SDS011;40578;53.178;5.846;2023-08-30T06:58:39;16.17;;;12.40;;
54679;SDS011;40578;53.178;5.846;2023-08-30T07:01:04;19.73;;;13.23;;
54679;SDS011;40578;53.178;5.846;2023-08-30T07:03:30;17.30;;;12.83;;
54679;SDS011;40578;53.178;5.846;2023-08-30T07:05:56;22.17;;;14.63;;
54679;SDS011;40578;53.178;5.846;2023-08-30T07:08:22;18.83;;;14.33;;
54679;SDS011;40578;53.178;5.846;2023-08-30T07:10:47;17.57;;;13.20;;
54679;SDS011;40578;53.178;5.846;2023-08-30T07:13:13;18.87;;;13.63;;
54679;SDS011;40578;53.178;5.846;2023-08-30T07:15:39;21.00;;;12.90;;
54679;SDS011;40578;53.178;5.846;2023-08-30T07:18:05;20.05;;;14.05;;
54679;SDS011;40578;53.178;5.846;2023-08-30T07:20:35;16.35;;;12.20;;
54679;SDS011;40578;53.178;5.846;2023-08-30T07:23:03;17.92;;;12.68;;
54679;SDS011;40578;53.178;5.846;2023-08-30T07:25:29;15.37;;;12.33;;
54679;SDS011;40578;53.178;5.846;2023-08-30T07:27:57;17.55;;;13.05;;
54679;SDS011;40578;53.178;5.846;2023-08-30T07:30:23;16.95;;;12.13;;
54679;SDS011;40578;53.178;5.846;2023-08-30T07:32:49;17.97;;;12.73;;
54679;SDS011;40578;53.178;5.846;2023-08-30T07:35:14;16.80;;;12.47;;
54679;SDS011;40578;53.178;5.846;2023-08-30T07:37:40;17.47;;;11.17;;
54679;SDS011;40578;53.178;5.846;2023-08-30T07:40:06;18.30;;;12.27;;
54679;SDS011;40578;53.178;5.846;2023-08-30T07:42:32;15.13;;;11.48;;
54679;SDS011;40578;53.178;5.846;2023-08-30T07:44:58;16.97;;;11.13;;
54679;SDS011;40578;53.178;5.846;2023-08-30T07:47:23;16.70;;;11.27;;
54679;SDS011;40578;53.178;5.846;2023-08-30T07:49:49;18.53;;;12.77;;
54679;SDS011;40578;53.178;5.846;2023-08-30T07:52:14;16.40;;;11.37;;
54679;SDS011;40578;53.178;5.846;2023-08-30T07:54:40;15.37;;;11.90;;
54679;SDS011;40578;53.178;5.846;2023-08-30T07:57:06;18.83;;;13.13;;
54679;SDS011;40578;53.178;5.846;2023-08-30T07:59:36;15.68;;;11.77;;
54679;SDS011;40578;53.178;5.846;2023-08-30T08:02:02;17.63;;;12.70;;
54679;SDS011;40578;53.178;5.846;2023-08-30T08:04:31;14.73;;;11.15;;
54679;SDS011;40578;53.178;5.846;2023-08-30T08:06:57;15.77;;;12.33;;
54679;SDS011;40578;53.178;5.846;2023-08-30T08:09:22;17.47;;;12.47;;
54679;SDS011;40578;53.178;5.846;2023-08-30T08:11:49;16.47;;;12.53;;
54679;SDS011;40578;53.178;5.846;2023-08-30T08:14:14;18.67;;;13.05;;
54679;SDS011;40578;53.178;5.846;2023-08-30T08:16:40;18.20;;;11.93;;
54679;SDS011;40578;53.178;5.846;2023-08-30T08:19:06;13.53;;;10.97;;
54679;SDS011;40578;53.178;5.846;2023-08-30T08:21:32;13.93;;;10.10;;
54679;SDS011;40578;53.178;5.846;2023-08-30T08:23:58;14.35;;;10.10;;
54679;SDS011;40578;53.178;5.846;2023-08-30T08:26:24;13.90;;;9.70;;
54679;SDS011;40578;53.178;5.846;2023-08-30T08:28:50;13.95;;;11.05;;
54679;SDS011;40578;53.178;5.846;2023-08-30T08:31:16;13.10;;;9.33;;
54679;SDS011;40578;53.178;5.846;2023-08-30T08:33:42;13.60;;;9.87;;
54679;SDS011;40578;53.178;5.846;2023-08-30T08:38:34;13.57;;;10.00;;
54679;SDS011;40578;53.178;5.846;2023-08-30T08:41:04;15.40;;;10.03;;
54679;SDS011;40578;53.178;5.846;2023-08-30T08:43:31;14.13;;;9.75;;
54679;SDS011;40578;53.178;5.846;2023-08-30T08:46:01;14.10;;;9.25;;
54679;SDS011;40578;53.178;5.846;2023-08-30T08:48:28;12.30;;;9.13;;
54679;SDS011;40578;53.178;5.846;2023-08-30T08:50:56;12.95;;;10.27;;
54679;SDS011;40578;53.178;5.846;2023-08-30T08:53:23;12.52;;;9.02;;
54679;SDS011;40578;53.178;5.846;2023-08-30T08:55:49;14.02;;;9.32;;
54679;SDS011;40578;53.178;5.846;2023-08-30T08:58:15;11.63;;;8.63;;
54679;SDS011;40578;53.178;5.846;2023-08-30T09:00:44;11.15;;;8.77;;
54679;SDS011;40578;53.178;5.846;2023-08-30T09:03:10;15.38;;;8.48;;
54679;SDS011;40578;53.178;5.846;2023-08-30T09:05:40;11.35;;;7.47;;
54679;SDS011;40578;53.178;5.846;2023-08-30T09:08:06;12.07;;;7.82;;
54679;SDS011;40578;53.178;5.846;2023-08-30T09:10:32;10.32;;;7.43;;
54679;SDS011;40578;53.178;5.846;2023-08-30T09:12:58;9.90;;;7.25;;
54679;SDS011;40578;53.178;5.846;2023-08-30T09:15:31;9.07;;;7.00;;
54679;SDS011;40578;53.178;5.846;2023-08-30T09:17:57;9.32;;;7.45;;
54679;SDS011;40578;53.178;5.846;2023-08-30T09:20:23;9.57;;;6.67;;
54679;SDS011;40578;53.178;5.846;2023-08-30T09:22:49;10.93;;;7.83;;
54679;SDS011;40578;53.178;5.846;2023-08-30T09:25:25;9.68;;;7.43;;
54679;SDS011;40578;53.178;5.846;2023-08-30T09:27:58;9.10;;;7.27;;
54679;SDS011;40578;53.178;5.846;2023-08-30T09:30:25;12.20;;;7.47;;
54679;SDS011;40578;53.178;5.846;2023-08-30T09:32:51;9.65;;;7.85;;
54679;SDS011;40578;53.178;5.846;2023-08-30T09:35:16;10.37;;;7.53;;
54679;SDS011;40578;53.178;5.846;2023-08-30T09:37:45;9.73;;;7.68;;
54679;SDS011;40578;53.178;5.846;2023-08-30T09:40:11;11.15;;;7.63;;
54679;SDS011;40578;53.178;5.846;2023-08-30T09:42:40;10.87;;;8.00;;
54679;SDS011;40578;53.178;5.846;2023-08-30T09:45:18;9.75;;;7.88;;
54679;SDS011;40578;53.178;5.846;2023-08-30T09:47:48;10.85;;;8.60;;
54679;SDS011;40578;53.178;5.846;2023-08-30T09:50:18;12.73;;;9.10;;
54679;SDS011;40578;53.178;5.846;2023-08-30T09:52:47;13.32;;;9.88;;
54679;SDS011;40578;53.178;5.846;2023-08-30T09:55:14;13.70;;;10.05;;
54679;SDS011;40578;53.178;5.846;2023-08-30T09:57:43;13.00;;;10.57;;
54679;SDS011;40578;53.178;5.846;2023-08-30T10:00:09;13.52;;;9.68;;
54679;SDS011;40578;53.178;5.846;2023-08-30T10:02:41;12.73;;;9.60;;
54679;SDS011;40578;53.178;5.846;2023-08-30T10:05:09;11.20;;;9.60;;
54679;SDS011;40578;53.178;5.846;2023-08-30T10:10:02;13.07;;;9.35;;
54679;SDS011;40578;53.178;5.846;2023-08-30T10:12:31;12.48;;;9.43;;
54679;SDS011;40578;53.178;5.846;2023-08-30T10:14:57;12.80;;;9.40;;
54679;SDS011;40578;53.178;5.846;2023-08-30T10:17:23;14.27;;;9.52;;
54679;SDS011;40578;53.178;5.846;2023-08-30T10:19:53;13.82;;;9.75;;
54679;SDS011;40578;53.178;5.846;2023-08-30T10:22:19;13.57;;;9.18;;
54679;SDS011;40578;53.178;5.846;2023-08-30T10:24:48;14.50;;;9.85;;
54679;SDS011;40578;53.178;5.846;2023-08-30T10:27:19;12.70;;;9.75;;
54679;SDS011;40578;53.178;5.846;2023-08-30T10:29:46;12.80;;;10.35;;
54679;SDS011;40578;53.178;5.846;2023-08-30T10:32:18;15.23;;;11.05;;
54679;SDS011;40578;53.178;5.846;2023-08-30T10:34:47;13.40;;;10.85;;
54679;SDS011;40578;53.178;5.846;2023-08-30T10:37:14;16.35;;;11.98;;
54679;SDS011;40578;53.178;5.846;2023-08-30T10:39:41;15.55;;;11.13;;
54679;SDS011;40578;53.178;5.846;2023-08-30T10:47:18;16.42;;;12.05;;
54679;SDS011;40578;53.178;5.846;2023-08-30T10:49:46;15.65;;;12.80;;
54679;SDS011;40578;53.178;5.846;2023-08-30T10:52:12;16.67;;;11.90;;
54679;SDS011;40578;53.178;5.846;2023-08-30T10:54:38;15.57;;;12.40;;
54679;SDS011;40578;53.178;5.846;2023-08-30T10:57:04;15.50;;;12.50;;
54679;SDS011;40578;53.178;5.846;2023-08-30T10:59:29;18.80;;;12.37;;
54679;SDS011;40578;53.178;5.846;2023-08-30T11:01:55;16.50;;;13.07;;
54679;SDS011;40578;53.178;5.846;2023-08-30T11:04:21;19.05;;;13.13;;
54679;SDS011;40578;53.178;5.846;2023-08-30T11:06:48;15.25;;;12.55;;
54679;SDS011;40578;53.178;5.846;2023-08-30T11:09:18;14.07;;;11.75;;
54679;SDS011;40578;53.178;5.846;2023-08-30T11:11:46;14.57;;;11.27;;
54679;SDS011;40578;53.178;5.846;2023-08-30T11:14:13;17.55;;;11.68;;
54679;SDS011;40578;53.178;5.846;2023-08-30T11:16:39;14.95;;;11.07;;
54679;SDS011;40578;53.178;5.846;2023-08-30T11:19:06;14.85;;;11.40;;
54679;SDS011;40578;53.178;5.846;2023-08-30T11:21:34;15.38;;;11.52;;
54679;SDS011;40578;53.178;5.846;2023-08-30T11:24:04;14.70;;;11.73;;
54679;SDS011;40578;53.178;5.846;2023-08-30T11:26:31;13.60;;;10.60;;
54679;SDS011;40578;53.178;5.846;2023-08-30T11:28:57;15.68;;;11.57;;
54679;SDS011;40578;53.178;5.846;2023-08-30T11:31:23;14.60;;;11.83;;
54679;SDS011;40578;53.178;5.846;2023-08-30T11:36:22;27.13;;;12.75;;
54679;SDS011;40578;53.178;5.846;2023-08-30T11:38:49;16.50;;;11.85;;
54679;SDS011;40578;53.178;5.846;2023-08-30T11:41:15;18.75;;;12.65;;
54679;SDS011;40578;53.178;5.846;2023-08-30T11:43:42;16.45;;;11.40;;
54679;SDS011;40578;53.178;5.846;2023-08-30T11:46:08;12.02;;;8.60;;
54679;SDS011;40578;53.178;5.846;2023-08-30T11:48:34;12.93;;;9.57;;
54679;SDS011;40578;53.178;5.846;2023-08-30T11:51:01;13.18;;;9.95;;
54679;SDS011;40578;53.178;5.846;2023-08-30T11:53:27;13.50;;;10.52;;
54679;SDS011;40578;53.178;5.846;2023-08-30T11:55:53;15.93;;;11.60;;
54679;SDS011;40578;53.178;5.846;2023-08-30T11:58:20;16.13;;;11.57;;
54679;SDS011;40578;53.178;5.846;2023-08-30T12:00:45;18.93;;;11.83;;
54679;SDS011;40578;53.178;5.846;2023-08-30T12:03:14;17.70;;;12.38;;
54679;SDS011;40578;53.178;5.846;2023-08-30T12:05:44;16.08;;;12.30;;
54679;SDS011;40578;53.178;5.846;2023-08-30T12:08:23;15.02;;;11.77;;
54679;SDS011;40578;53.178;5.846;2023-08-30T12:10:51;15.88;;;12.73;;
54679;SDS011;40578;53.178;5.846;2023-08-30T12:13:24;15.45;;;12.52;;
54679;SDS011;40578;53.178;5.846;2023-08-30T12:15:55;16.63;;;12.40;;
54679;SDS011;40578;53.178;5.846;2023-08-30T12:18:22;14.98;;;12.50;;
54679;SDS011;40578;53.178;5.846;2023-08-30T12:20:55;13.40;;;10.70;;
54679;SDS011;40578;53.178;5.846;2023-08-30T12:23:32;12.57;;;10.00;;
54679;SDS011;40578;53.178;5.846;2023-08-30T12:28:31;11.65;;;9.57;;
54679;SDS011;40578;53.178;5.846;2023-08-30T12:30:59;12.88;;;9.68;;
54679;SDS011;40578;53.178;5.846;2023-08-30T12:33:24;9.30;;;7.03;;
54679;SDS011;40578;53.178;5.846;2023-08-30T12:35:51;11.27;;;8.68;;
54679;SDS011;40578;53.178;5.846;2023-08-30T12:38:17;10.73;;;8.45;;
54679;SDS011;40578;53.178;5.846;2023-08-30T12:40:44;11.50;;;8.90;;
54679;SDS011;40578;53.178;5.846;2023-08-30T12:43:10;10.50;;;8.20;;
54679;SDS011;40578;53.178;5.846;2023-08-30T12:45:37;12.13;;;8.27;;
54679;SDS011;40578;53.178;5.846;2023-08-30T12:48:07;10.90;;;7.80;;
54679;SDS011;40578;53.178;5.846;2023-08-30T12:50:35;8.70;;;6.55;;
54679;SDS011;40578;53.178;5.846;2023-08-30T12:53:02;8.85;;;6.70;;
54679;SDS011;40578;53.178;5.846;2023-08-30T12:55:28;9.68;;;6.68;;
54679;SDS011;40578;53.178;5.846;2023-08-30T12:57:54;8.65;;;7.00;;
54679;SDS011;40578;53.178;5.846;2023-08-30T13:00:19;8.17;;;6.87;;
54679;SDS011;40578;53.178;5.846;2023-08-30T13:02:45;9.73;;;7.53;;
54679;SDS011;40578;53.178;5.846;2023-08-30T13:05:11;12.43;;;8.37;;
54679;SDS011;40578;53.178;5.846;2023-08-30T13:07:36;11.73;;;8.30;;
54679;SDS011;40578;53.178;5.846;2023-08-30T13:10:02;10.05;;;7.90;;
54679;SDS011;40578;53.178;5.846;2023-08-30T13:12:28;10.45;;;7.70;;
54679;SDS011;40578;53.178;5.846;2023-08-30T13:14:54;9.77;;;7.80;;
54679;SDS011;40578;53.178;5.846;2023-08-30T13:17:20;10.30;;;7.93;;
54679;SDS011;40578;53.178;5.846;2023-08-30T13:19:45;8.57;;;7.10;;
54679;SDS011;40578;53.178;5.846;2023-08-30T13:22:11;9.03;;;7.37;;
54679;SDS011;40578;53.178;5.846;2023-08-30T13:24:36;10.63;;;8.23;;
54679;SDS011;40578;53.178;5.846;2023-08-30T13:27:02;10.83;;;8.47;;
54679;SDS011;40578;53.178;5.846;2023-08-30T13:29:28;12.43;;;9.23;;
54679;SDS011;40578;53.178;5.846;2023-08-30T13:31:54;10.80;;;8.40;;
54679;SDS011;40578;53.178;5.846;2023-08-30T13:34:20;11.70;;;8.63;;
54679;SDS011;40578;53.178;5.846;2023-08-30T13:36:46;8.90;;;7.93;;
54679;SDS011;40578;53.178;5.846;2023-08-30T13:39:11;11.70;;;8.90;;
54679;SDS011;40578;53.178;5.846;2023-08-30T13:41:37;10.57;;;8.70;;
54679;SDS011;40578;53.178;5.846;2023-08-30T13:44:03;11.67;;;9.07;;
54679;SDS011;40578;53.178;5.846;2023-08-30T13:46:29;14.53;;;9.80;;
54679;SDS011;40578;53.178;5.846;2023-08-30T13:48:55;12.48;;;8.77;;
54679;SDS011;40578;53.178;5.846;2023-08-30T13:51:21;9.83;;;8.77;;
54679;SDS011;40578;53.178;5.846;2023-08-30T13:53:47;9.80;;;8.02;;
54679;SDS011;40578;53.178;5.846;2023-08-30T13:56:13;10.73;;;7.82;;
54679;SDS011;40578;53.178;5.846;2023-08-30T13:58:39;9.67;;;6.93;;
54679;SDS011;40578;53.178;5.846;2023-08-30T14:01:05;10.77;;;7.50;;
54679;SDS011;40578;53.178;5.846;2023-08-30T14:03:30;9.07;;;7.33;;
54679;SDS011;40578;53.178;5.846;2023-08-30T14:05:57;8.67;;;6.80;;
54679;SDS011;40578;53.178;5.846;2023-08-30T14:08:22;9.13;;;7.03;;
54679;SDS011;40578;53.178;5.846;2023-08-30T14:10:48;9.07;;;5.93;;
54679;SDS011;40578;53.178;5.846;2023-08-30T14:13:14;10.97;;;6.57;;
54679;SDS011;40578;53.178;5.846;2023-08-30T14:15:40;9.90;;;6.30;;
54679;SDS011;40578;53.178;5.846;2023-08-30T14:18:07;11.88;;;4.90;;
54679;SDS011;40578;53.178;5.846;2023-08-30T14:20:32;9.20;;;3.70;;
54679;SDS011;40578;53.178;5.846;2023-08-30T14:22:58;7.30;;;3.27;;
54679;SDS011;40578;53.178;5.846;2023-08-30T14:25:24;8.40;;;2.87;;
54679;SDS011;40578;53.178;5.846;2023-08-30T14:27:49;7.57;;;2.80;;
54679;SDS011;40578;53.178;5.846;2023-08-30T14:30:15;14.77;;;3.23;;
54679;SDS011;40578;53.178;5.846;2023-08-30T14:32:41;8.85;;;3.00;;
54679;SDS011;40578;53.178;5.846;2023-08-30T14:35:07;6.10;;;2.67;;
54679;SDS011;40578;53.178;5.846;2023-08-30T14:37:33;6.18;;;2.33;;
54679;SDS011;40578;53.178;5.846;2023-08-30T14:40:03;8.40;;;3.42;;
54679;SDS011;40578;53.178;5.846;2023-08-30T14:42:29;11.43;;;3.20;;